sensor_id;sensor_type;location;lat;lon;timestamp;pressure;altitude;pressure_sealevel;temperature;humidity
73297;BME280;61524;50.938;11.396;2023-01-01T00:01:44;98927.47;;;14.01;64.60
73297;BME280;61524;50.938;11.396;2023-01-01T00:04:12;98942.81;;;13.80;65.77
73297;BME280;61524;50.938;11.396;2023-01-01T00:06:38;98927.78;;;13.95;64.63
73297;BME280;61524;50.938;11.396;2023-01-01T00:09:04;98939.56;;;13.99;64.38
73297;BME280;61524;50.938;11.396;2023-01-01T00:11:47;98935.28;;;13.98;64.91
73297;BME280;61524;50.938;11.396;2023-01-01T00:14:13;98931.28;;;13.85;64.78
73297;BME280;61524;50.938;11.396;2023-01-01T00:16:38;98942.03;;;13.70;65.74
73297;BME280;61524;50.938;11.396;2023-01-01T00:19:04;98945.25;;;13.51;66.46
73297;BME280;61524;50.938;11.396;2023-01-01T00:21:29;98938.53;;;13.59;66.39
73297;BME280;61524;50.938;11.396;2023-01-01T00:23:55;98954.91;;;13.62;65.79
73297;BME280;61524;50.938;11.396;2023-01-01T00:26:20;98945.50;;;13.80;65.23
73297;BME280;61524;50.938;11.396;2023-01-01T00:28:46;98941.50;;;13.68;65.94
73297;BME280;61524;50.938;11.396;2023-01-01T00:31:20;98952.22;;;13.62;65.69
73297;BME280;61524;50.938;11.396;2023-01-01T00:33:49;98946.31;;;13.60;65.96
73297;BME280;61524;50.938;11.396;2023-01-01T00:36:16;98953.53;;;13.45;66.94
73297;BME280;61524;50.938;11.396;2023-01-01T00:38:43;98954.63;;;13.49;66.34
73297;BME280;61524;50.938;11.396;2023-01-01T00:41:09;98948.44;;;13.43;66.77
73297;BME280;61524;50.938;11.396;2023-01-01T00:43:35;98940.41;;;13.53;66.55
73297;BME280;61524;50.938;11.396;2023-01-01T00:46:01;98945.78;;;13.53;66.16
73297;BME280;61524;50.938;11.396;2023-01-01T00:48:27;98947.91;;;13.36;67.20
73297;BME280;61524;50.938;11.396;2023-01-01T00:50:53;98947.09;;;13.25;66.98
73297;BME280;61524;50.938;11.396;2023-01-01T00:53:19;98934.75;;;13.24;67.10
73297;BME280;61524;50.938;11.396;2023-01-01T00:55:46;98950.31;;;13.27;67.34
73297;BME280;61524;50.938;11.396;2023-01-01T00:58:13;98934.72;;;13.14;67.81
73297;BME280;61524;50.938;11.396;2023-01-01T01:00:38;98943.31;;;13.21;67.65
73297;BME280;61524;50.938;11.396;2023-01-01T01:03:04;98941.19;;;13.33;66.99
73297;BME280;61524;50.938;11.396;2023-01-01T01:05:30;98960.53;;;13.30;67.02
73297;BME280;61524;50.938;11.396;2023-01-01T01:07:56;98951.38;;;13.21;67.30
73297;BME280;61524;50.938;11.396;2023-01-01T01:10:22;98969.09;;;13.22;67.91
73297;BME280;61524;50.938;11.396;2023-01-01T01:12:50;98961.28;;;13.21;67.41
73297;BME280;61524;50.938;11.396;2023-01-01T01:15:16;98954.28;;;13.09;68.03
73297;BME280;61524;50.938;11.396;2023-01-01T01:17:41;98962.13;;;13.21;67.19
73297;BME280;61524;50.938;11.396;2023-01-01T01:20:07;98943.28;;;13.16;67.42
73297;BME280;61524;50.938;11.396;2023-01-01T01:22:33;98948.97;;;13.25;68.10
73297;BME280;61524;50.938;11.396;2023-01-01T01:24:59;98956.75;;;13.21;68.57
73297;BME280;61524;50.938;11.396;2023-01-01T01:27:25;98947.34;;;13.19;68.29
73297;BME280;61524;50.938;11.396;2023-01-01T01:29:51;98958.38;;;13.43;67.53
73297;BME280;61524;50.938;11.396;2023-01-01T01:32:17;98962.66;;;13.38;66.97
73297;BME280;61524;50.938;11.396;2023-01-01T01:34:43;98964.28;;;13.29;67.95
73297;BME280;61524;50.938;11.396;2023-01-01T01:37:08;98966.69;;;13.31;67.92
73297;BME280;61524;50.938;11.396;2023-01-01T01:39:33;98961.06;;;13.48;66.93
73297;BME280;61524;50.938;11.396;2023-01-01T01:42:00;98950.59;;;13.41;66.97
73297;BME280;61524;50.938;11.396;2023-01-01T01:47:28;98939.88;;;13.56;65.89
73297;BME280;61524;50.938;11.396;2023-01-01T01:50:05;98946.59;;;13.69;65.46
73297;BME280;61524;50.938;11.396;2023-01-01T01:52:35;98939.06;;;13.56;65.99
73297;BME280;61524;50.938;11.396;2023-01-01T01:55:03;98943.91;;;13.59;65.63
73297;BME280;61524;50.938;11.396;2023-01-01T01:57:29;98939.63;;;13.68;65.09
73297;BME280;61524;50.938;11.396;2023-01-01T01:59:56;98944.16;;;13.83;64.33
73297;BME280;61524;50.938;11.396;2023-01-01T02:04:51;98937.16;;;13.77;64.55
73297;BME280;61524;50.938;11.396;2023-01-01T02:07:17;98932.63;;;13.67;64.88
73297;BME280;61524;50.938;11.396;2023-01-01T02:09:44;98928.59;;;13.54;65.31
73297;BME280;61524;50.938;11.396;2023-01-01T02:12:09;98926.19;;;13.53;65.12
73297;BME280;61524;50.938;11.396;2023-01-01T02:14:35;98919.22;;;13.47;65.62
73297;BME280;61524;50.938;11.396;2023-01-01T02:17:12;98926.47;;;13.41;65.64
73297;BME280;61524;50.938;11.396;2023-01-01T02:28:09;98911.97;;;13.57;64.95
73297;BME280;61524;50.938;11.396;2023-01-01T02:30:43;98916.78;;;13.50;65.46
73297;BME280;61524;50.938;11.396;2023-01-01T02:33:16;98918.13;;;13.43;65.92
73297;BME280;61524;50.938;11.396;2023-01-01T02:35:50;98920.00;;;13.37;65.75
73297;BME280;61524;50.938;11.396;2023-01-01T02:38:35;98921.34;;;13.39;65.45
73297;BME280;61524;50.938;11.396;2023-01-01T02:41:04;98916.78;;;13.35;66.39
73297;BME280;61524;50.938;11.396;2023-01-01T02:43:31;98906.31;;;13.44;65.28
73297;BME280;61524;50.938;11.396;2023-01-01T02:45:56;98915.16;;;13.34;65.75
73297;BME280;61524;50.938;11.396;2023-01-01T02:54:25;98928.31;;;13.25;66.48
73297;BME280;61524;50.938;11.396;2023-01-01T02:57:05;98929.59;;;13.12;67.24
73297;BME280;61524;50.938;11.396;2023-01-01T03:00:04;98926.38;;;13.05;67.53
73297;BME280;61524;50.938;11.396;2023-01-01T03:05:51;98928.78;;;12.92;68.56
73297;BME280;61524;50.938;11.396;2023-01-01T03:11:24;98925.81;;;12.93;68.58
73297;BME280;61524;50.938;11.396;2023-01-01T03:16:34;98933.31;;;12.96;68.13
73297;BME280;61524;50.938;11.396;2023-01-01T03:21:58;98931.44;;;12.92;68.71
73297;BME280;61524;50.938;11.396;2023-01-01T03:24:39;98934.13;;;12.97;68.47
73297;BME280;61524;50.938;11.396;2023-01-01T03:27:13;98935.47;;;12.94;68.65
73297;BME280;61524;50.938;11.396;2023-01-01T03:29:43;98948.31;;;12.87;68.73
73297;BME280;61524;50.938;11.396;2023-01-01T03:32:15;98934.94;;;12.92;68.12
73297;BME280;61524;50.938;11.396;2023-01-01T03:34:48;98940.78;;;12.79;69.74
73297;BME280;61524;50.938;11.396;2023-01-01T03:37:20;98930.84;;;12.74;69.26
73297;BME280;61524;50.938;11.396;2023-01-01T03:39:50;98931.63;;;12.70;69.74
73297;BME280;61524;50.938;11.396;2023-01-01T03:42:35;98943.66;;;12.62;69.76
73297;BME280;61524;50.938;11.396;2023-01-01T03:45:06;98949.03;;;12.62;69.86
73297;BME280;61524;50.938;11.396;2023-01-01T03:47:34;98942.78;;;12.46;71.10
73297;BME280;61524;50.938;11.396;2023-01-01T03:50:01;98938.91;;;12.84;69.88
73297;BME280;61524;50.938;11.396;2023-01-01T03:52:44;98951.50;;;12.79;70.19
73297;BME280;61524;50.938;11.396;2023-01-01T03:55:38;98945.28;;;12.68;70.32
73297;BME280;61524;50.938;11.396;2023-01-01T03:58:25;98942.63;;;12.68;70.71
73297;BME280;61524;50.938;11.396;2023-01-01T04:01:03;98959.81;;;12.77;70.18
73297;BME280;61524;50.938;11.396;2023-01-01T04:03:32;98952.00;;;12.66;70.90
73297;BME280;61524;50.938;11.396;2023-01-01T04:06:00;98954.41;;;12.67;70.69
73297;BME280;61524;50.938;11.396;2023-01-01T04:08:27;98964.34;;;12.72;70.91
73297;BME280;61524;50.938;11.396;2023-01-01T04:10:55;98967.84;;;12.77;70.51
73297;BME280;61524;50.938;11.396;2023-01-01T04:13:22;98969.16;;;12.70;70.94
73297;BME280;61524;50.938;11.396;2023-01-01T04:15:48;98952.84;;;12.76;70.75
73297;BME280;61524;50.938;11.396;2023-01-01T04:18:14;98950.16;;;12.76;71.03
73297;BME280;61524;50.938;11.396;2023-01-01T04:20:39;98956.34;;;12.77;70.83
73297;BME280;61524;50.938;11.396;2023-01-01T04:23:05;98957.16;;;12.82;70.23
73297;BME280;61524;50.938;11.396;2023-01-01T04:25:30;98947.97;;;12.68;71.34
73297;BME280;61524;50.938;11.396;2023-01-01T04:27:56;98959.78;;;12.67;71.25
73297;BME280;61524;50.938;11.396;2023-01-01T04:30:27;98961.31;;;12.53;71.62
73297;BME280;61524;50.938;11.396;2023-01-01T04:32:53;98961.28;;;12.48;71.87
73297;BME280;61524;50.938;11.396;2023-01-01T04:35:19;98973.41;;;12.55;71.49
73297;BME280;61524;50.938;11.396;2023-01-01T04:37:44;98968.31;;;12.64;71.40
73297;BME280;61524;50.938;11.396;2023-01-01T04:40:11;98975.38;;;12.85;70.45
73297;BME280;61524;50.938;11.396;2023-01-01T04:42:40;98967.31;;;12.70;70.72
73297;BME280;61524;50.938;11.396;2023-01-01T04:45:06;98966.78;;;12.78;70.61
73297;BME280;61524;50.938;11.396;2023-01-01T04:47:32;98968.69;;;12.88;69.96
73297;BME280;61524;50.938;11.396;2023-01-01T04:49:57;98972.72;;;12.91;69.36
73297;BME280;61524;50.938;11.396;2023-01-01T04:52:22;98986.63;;;12.77;70.64
73297;BME280;61524;50.938;11.396;2023-01-01T04:54:48;98992.78;;;12.73;71.02
73297;BME280;61524;50.938;11.396;2023-01-01T04:57:13;98983.69;;;12.79;70.57
73297;BME280;61524;50.938;11.396;2023-01-01T04:59:40;98984.38;;;12.59;71.28
73297;BME280;61524;50.938;11.396;2023-01-01T05:02:05;98989.25;;;12.62;71.29
73297;BME280;61524;50.938;11.396;2023-01-01T05:04:31;98990.53;;;12.49;71.84
73297;BME280;61524;50.938;11.396;2023-01-01T05:06:56;98994.75;;;12.40;72.00
73297;BME280;61524;50.938;11.396;2023-01-01T05:09:22;98998.28;;;12.51;71.53
73297;BME280;61524;50.938;11.396;2023-01-01T05:11:47;98995.06;;;12.44;72.18
73297;BME280;61524;50.938;11.396;2023-01-01T05:14:13;98999.66;;;12.58;71.30
73297;BME280;61524;50.938;11.396;2023-01-01T05:16:39;99003.16;;;12.54;71.60
73297;BME280;61524;50.938;11.396;2023-01-01T05:19:05;98997.22;;;12.52;71.76
73297;BME280;61524;50.938;11.396;2023-01-01T05:21:33;99003.16;;;12.59;71.36
73297;BME280;61524;50.938;11.396;2023-01-01T05:24:05;99018.25;;;12.70;71.34
73297;BME280;61524;50.938;11.396;2023-01-01T05:26:36;99017.38;;;12.59;71.56
73297;BME280;61524;50.938;11.396;2023-01-01T05:29:02;99015.22;;;12.56;72.17
73297;BME280;61524;50.938;11.396;2023-01-01T05:31:33;99021.28;;;12.42;72.20
73297;BME280;61524;50.938;11.396;2023-01-01T05:34:00;99020.97;;;12.33;73.44
73297;BME280;61524;50.938;11.396;2023-01-01T05:36:33;99023.41;;;12.40;72.58
73297;BME280;61524;50.938;11.396;2023-01-01T05:39:02;99039.47;;;12.34;73.53
73297;BME280;61524;50.938;11.396;2023-01-01T05:41:28;99042.13;;;12.34;73.37
73297;BME280;61524;50.938;11.396;2023-01-01T05:43:55;99027.41;;;12.37;73.85
73297;BME280;61524;50.938;11.396;2023-01-01T05:46:22;99038.97;;;12.43;73.51
73297;BME280;61524;50.938;11.396;2023-01-01T05:48:50;99055.53;;;12.34;73.92
73297;BME280;61524;50.938;11.396;2023-01-01T05:51:24;99050.44;;;12.33;73.79
73297;BME280;61524;50.938;11.396;2023-01-01T05:53:50;99050.41;;;12.28;74.24
73297;BME280;61524;50.938;11.396;2023-01-01T05:56:16;99042.69;;;12.37;74.13
73297;BME280;61524;50.938;11.396;2023-01-01T05:58:42;99058.59;;;12.53;73.33
73297;BME280;61524;50.938;11.396;2023-01-01T06:03:39;99052.59;;;12.36;74.00
73297;BME280;61524;50.938;11.396;2023-01-01T06:06:06;99067.50;;;12.22;74.87
73297;BME280;61524;50.938;11.396;2023-01-01T06:08:32;99071.09;;;12.38;74.11
73297;BME280;61524;50.938;11.396;2023-01-01T06:11:03;99075.28;;;12.23;74.58
73297;BME280;61524;50.938;11.396;2023-01-01T06:13:29;99072.56;;;12.18;74.68
73297;BME280;61524;50.938;11.396;2023-01-01T06:15:56;99082.94;;;12.09;75.22
73297;BME280;61524;50.938;11.396;2023-01-01T06:18:22;99071.97;;;12.11;75.00
73297;BME280;61524;50.938;11.396;2023-01-01T06:20:48;99082.34;;;12.02;75.83
73297;BME280;61524;50.938;11.396;2023-01-01T06:23:13;99069.81;;;12.08;75.55
73297;BME280;61524;50.938;11.396;2023-01-01T06:25:39;99086.31;;;12.27;74.87
73297;BME280;61524;50.938;11.396;2023-01-01T06:28:04;99081.13;;;12.20;74.84
73297;BME280;61524;50.938;11.396;2023-01-01T06:30:30;99087.09;;;12.27;74.68
73297;BME280;61524;50.938;11.396;2023-01-01T06:32:58;99097.00;;;12.27;74.65
73297;BME280;61524;50.938;11.396;2023-01-01T06:35:24;99092.88;;;12.14;75.14
73297;BME280;61524;50.938;11.396;2023-01-01T06:37:49;99096.13;;;12.21;74.85
73297;BME280;61524;50.938;11.396;2023-01-01T06:40:15;99096.03;;;12.06;74.74
73297;BME280;61524;50.938;11.396;2023-01-01T06:42:40;99103.94;;;11.91;75.54
73297;BME280;61524;50.938;11.396;2023-01-01T06:45:06;99097.56;;;11.97;75.29
73297;BME280;61524;50.938;11.396;2023-01-01T06:47:33;99098.31;;;11.92;75.75
73297;BME280;61524;50.938;11.396;2023-01-01T06:49:59;99105.50;;;11.87;75.82
73297;BME280;61524;50.938;11.396;2023-01-01T06:52:25;99102.25;;;11.85;75.73
73297;BME280;61524;50.938;11.396;2023-01-01T06:54:50;99093.50;;;11.94;75.36
73297;BME280;61524;50.938;11.396;2023-01-01T06:57:16;99102.09;;;11.96;74.99
73297;BME280;61524;50.938;11.396;2023-01-01T06:59:41;99089.22;;;11.93;75.13
73297;BME280;61524;50.938;11.396;2023-01-01T07:02:09;99091.09;;;11.93;75.22
73297;BME280;61524;50.938;11.396;2023-01-01T07:04:35;99102.06;;;11.91;75.04
73297;BME280;61524;50.938;11.396;2023-01-01T07:07:01;99114.75;;;11.79;75.19
73297;BME280;61524;50.938;11.396;2023-01-01T07:09:26;99111.50;;;11.77;75.38
73297;BME280;61524;50.938;11.396;2023-01-01T07:11:51;99120.28;;;11.72;75.46
73297;BME280;61524;50.938;11.396;2023-01-01T07:14:17;99113.22;;;11.83;74.94
73297;BME280;61524;50.938;11.396;2023-01-01T07:16:42;99117.19;;;11.80;74.91
73297;BME280;61524;50.938;11.396;2023-01-01T07:19:08;99114.31;;;11.87;74.45
73297;BME280;61524;50.938;11.396;2023-01-01T07:21:50;99117.69;;;12.04;73.84
73297;BME280;61524;50.938;11.396;2023-01-01T07:24:17;99112.25;;;11.94;73.91
73297;BME280;61524;50.938;11.396;2023-01-01T07:26:43;99122.72;;;11.96;73.58
73297;BME280;61524;50.938;11.396;2023-01-01T07:29:09;99129.47;;;12.03;73.83
73297;BME280;61524;50.938;11.396;2023-01-01T07:31:39;99140.94;;;11.99;73.64
73297;BME280;61524;50.938;11.396;2023-01-01T07:34:06;99146.34;;;12.04;73.24
73297;BME280;61524;50.938;11.396;2023-01-01T07:36:31;99144.34;;;12.16;73.18
73297;BME280;61524;50.938;11.396;2023-01-01T07:38:57;99151.75;;;12.09;73.55
73297;BME280;61524;50.938;11.396;2023-01-01T07:41:22;99145.03;;;12.06;73.58
73297;BME280;61524;50.938;11.396;2023-01-01T07:43:48;99146.97;;;12.11;73.38
73297;BME280;61524;50.938;11.396;2023-01-01T07:46:13;99154.25;;;12.21;73.09
73297;BME280;61524;50.938;11.396;2023-01-01T07:48:40;99150.03;;;11.98;74.35
73297;BME280;61524;50.938;11.396;2023-01-01T07:51:06;99141.63;;;11.89;74.84
73297;BME280;61524;50.938;11.396;2023-01-01T07:53:32;99146.13;;;11.83;75.39
73297;BME280;61524;50.938;11.396;2023-01-01T07:55:57;99154.28;;;11.94;75.25
73297;BME280;61524;50.938;11.396;2023-01-01T07:58:22;99154.94;;;12.06;74.36
73297;BME280;61524;50.938;11.396;2023-01-01T08:00:48;99156.56;;;12.07;74.41
73297;BME280;61524;50.938;11.396;2023-01-01T08:03:14;99169.84;;;11.97;75.39
73297;BME280;61524;50.938;11.396;2023-01-01T08:05:40;99183.84;;;12.04;75.31
73297;BME280;61524;50.938;11.396;2023-01-01T08:08:06;99180.47;;;12.14;74.63
73297;BME280;61524;50.938;11.396;2023-01-01T08:10:31;99188.66;;;12.29;74.13
73297;BME280;61524;50.938;11.396;2023-01-01T08:13:05;99186.78;;;12.29;73.66
73297;BME280;61524;50.938;11.396;2023-01-01T08:15:31;99189.09;;;12.21;74.51
73297;BME280;61524;50.938;11.396;2023-01-01T08:17:58;99205.78;;;12.28;73.95
73297;BME280;61524;50.938;11.396;2023-01-01T08:20:25;99212.06;;;12.39;73.50
73297;BME280;61524;50.938;11.396;2023-01-01T08:22:50;99225.69;;;12.37;73.60
73297;BME280;61524;50.938;11.396;2023-01-01T08:25:16;99212.59;;;12.41;73.26
73297;BME280;61524;50.938;11.396;2023-01-01T08:27:41;99242.06;;;12.41;73.57
73297;BME280;61524;50.938;11.396;2023-01-01T08:30:07;99233.94;;;12.30;74.20
73297;BME280;61524;50.938;11.396;2023-01-01T08:32:33;99221.09;;;12.32;74.17
73297;BME280;61524;50.938;11.396;2023-01-01T08:34:58;99237.94;;;12.28;74.66
73297;BME280;61524;50.938;11.396;2023-01-01T08:37:24;99237.13;;;12.27;74.03
73297;BME280;61524;50.938;11.396;2023-01-01T08:39:50;99238.75;;;12.28;73.99
73297;BME280;61524;50.938;11.396;2023-01-01T08:42:16;99253.69;;;12.24;74.47
73297;BME280;61524;50.938;11.396;2023-01-01T08:44:42;99243.28;;;12.28;74.48
73297;BME280;61524;50.938;11.396;2023-01-01T08:47:16;99243.47;;;12.21;75.27
73297;BME280;61524;50.938;11.396;2023-01-01T08:49:42;99239.13;;;12.15;74.98
73297;BME280;61524;50.938;11.396;2023-01-01T08:52:08;99242.53;;;12.32;74.46
73297;BME280;61524;50.938;11.396;2023-01-01T08:54:33;99242.94;;;12.46;73.31
73297;BME280;61524;50.938;11.396;2023-01-01T08:56:58;99252.13;;;12.55;73.24
73297;BME280;61524;50.938;11.396;2023-01-01T08:59:24;99245.97;;;12.55;73.45
73297;BME280;61524;50.938;11.396;2023-01-01T09:01:49;99252.66;;;12.57;73.77
73297;BME280;61524;50.938;11.396;2023-01-01T09:04:15;99257.63;;;12.71;72.93
73297;BME280;61524;50.938;11.396;2023-01-01T09:06:41;99258.72;;;12.75;73.43
73297;BME280;61524;50.938;11.396;2023-01-01T09:09:07;99268.44;;;12.81;73.37
73297;BME280;61524;50.938;11.396;2023-01-01T09:11:32;99270.94;;;12.93;71.99
73297;BME280;61524;50.938;11.396;2023-01-01T09:13:57;99268.03;;;12.99;71.76
73297;BME280;61524;50.938;11.396;2023-01-01T09:16:23;99255.53;;;13.10;71.50
73297;BME280;61524;50.938;11.396;2023-01-01T09:18:48;99252.81;;;13.05;71.71
73297;BME280;61524;50.938;11.396;2023-01-01T09:21:14;99250.63;;;13.02;72.39
73297;BME280;61524;50.938;11.396;2023-01-01T09:23:39;99257.00;;;12.96;73.18
73297;BME280;61524;50.938;11.396;2023-01-01T09:26:06;99251.41;;;12.97;72.88
73297;BME280;61524;50.938;11.396;2023-01-01T09:28:33;99244.41;;;12.96;72.89
73297;BME280;61524;50.938;11.396;2023-01-01T09:30:58;99260.22;;;12.93;73.64
73297;BME280;61524;50.938;11.396;2023-01-01T09:33:25;99258.63;;;12.97;72.94
73297;BME280;61524;50.938;11.396;2023-01-01T09:35:51;99261.91;;;13.04;71.77
73297;BME280;61524;50.938;11.396;2023-01-01T09:38:16;99251.72;;;13.06;72.09
73297;BME280;61524;50.938;11.396;2023-01-01T09:41:23;99241.25;;;13.04;72.81
73297;BME280;61524;50.938;11.396;2023-01-01T09:44:04;99250.19;;;13.15;71.72
73297;BME280;61524;50.938;11.396;2023-01-01T09:46:32;99260.47;;;13.23;71.19
73297;BME280;61524;50.938;11.396;2023-01-01T09:49:01;99249.50;;;13.25;72.06
73297;BME280;61524;50.938;11.396;2023-01-01T09:51:33;99257.78;;;13.23;72.44
73297;BME280;61524;50.938;11.396;2023-01-01T09:54:00;99266.38;;;13.25;71.56
73297;BME280;61524;50.938;11.396;2023-01-01T09:56:31;99263.22;;;13.33;71.31
73297;BME280;61524;50.938;11.396;2023-01-01T09:59:00;99262.16;;;13.39;71.00
73297;BME280;61524;50.938;11.396;2023-01-01T10:07:30;99283.78;;;13.60;69.79
73297;BME280;61524;50.938;11.396;2023-01-01T10:15:19;99297.06;;;13.87;69.01
73297;BME280;61524;50.938;11.396;2023-01-01T10:17:52;99286.91;;;13.94;69.17
73297;BME280;61524;50.938;11.396;2023-01-01T10:20:23;99279.69;;;14.05;69.37
73297;BME280;61524;50.938;11.396;2023-01-01T10:22:54;99277.28;;;14.13;68.72
73297;BME280;61524;50.938;11.396;2023-01-01T10:25:24;99274.91;;;14.22;68.67
73297;BME280;61524;50.938;11.396;2023-01-01T10:28:11;99277.09;;;14.40;67.64
73297;BME280;61524;50.938;11.396;2023-01-01T10:30:38;99272.53;;;14.41;68.86
73297;BME280;61524;50.938;11.396;2023-01-01T10:33:10;99269.03;;;14.40;67.38
73297;BME280;61524;50.938;11.396;2023-01-01T10:35:44;99271.44;;;14.42;68.59
73297;BME280;61524;50.938;11.396;2023-01-01T10:38:22;99270.69;;;14.52;67.35
73297;BME280;61524;50.938;11.396;2023-01-01T10:40:48;99262.91;;;14.50;67.87
73297;BME280;61524;50.938;11.396;2023-01-01T10:43:14;99270.66;;;14.47;67.26
73297;BME280;61524;50.938;11.396;2023-01-01T10:45:46;99289.47;;;14.47;67.12
73297;BME280;61524;50.938;11.396;2023-01-01T10:48:17;99281.66;;;14.40;67.77
73297;BME280;61524;50.938;11.396;2023-01-01T10:58:56;99287.78;;;14.20;68.41
73297;BME280;61524;50.938;11.396;2023-01-01T11:01:30;99295.31;;;14.18;68.39
73297;BME280;61524;50.938;11.396;2023-01-01T11:03:58;99294.50;;;14.12;68.68
73297;BME280;61524;50.938;11.396;2023-01-01T11:06:31;99289.66;;;14.14;68.38
73297;BME280;61524;50.938;11.396;2023-01-01T11:08:59;99294.50;;;14.12;68.87
73297;BME280;61524;50.938;11.396;2023-01-01T11:11:41;99283.47;;;14.14;68.92
73297;BME280;61524;50.938;11.396;2023-01-01T11:14:18;99285.06;;;14.15;69.03
73297;BME280;61524;50.938;11.396;2023-01-01T11:16:45;99275.94;;;14.11;69.02
73297;BME280;61524;50.938;11.396;2023-01-01T11:19:40;99256.88;;;14.12;69.38
73297;BME280;61524;50.938;11.396;2023-01-01T11:22:05;99251.78;;;14.11;69.49
73297;BME280;61524;50.938;11.396;2023-01-01T11:24:32;99248.53;;;14.14;70.35
73297;BME280;61524;50.938;11.396;2023-01-01T11:27:22;99245.59;;;14.15;70.01
73297;BME280;61524;50.938;11.396;2023-01-01T11:29:49;99241.84;;;14.16;70.32
73297;BME280;61524;50.938;11.396;2023-01-01T11:32:34;99240.22;;;14.15;69.75
73297;BME280;61524;50.938;11.396;2023-01-01T11:35:16;99254.50;;;14.21;69.12
73297;BME280;61524;50.938;11.396;2023-01-01T11:37:44;99256.91;;;14.23;68.76
73297;BME280;61524;50.938;11.396;2023-01-01T11:40:37;99253.41;;;14.17;70.10
73297;BME280;61524;50.938;11.396;2023-01-01T11:43:17;99261.16;;;14.08;70.83
73297;BME280;61524;50.938;11.396;2023-01-01T11:45:45;99252.84;;;14.10;69.83
73297;BME280;61524;50.938;11.396;2023-01-01T11:48:19;99250.69;;;14.12;69.75
73297;BME280;61524;50.938;11.396;2023-01-01T11:50:54;99258.47;;;14.08;70.74
73297;BME280;61524;50.938;11.396;2023-01-01T12:01:24;99252.31;;;14.18;69.95
73297;BME280;61524;50.938;11.396;2023-01-01T12:06:53;99236.72;;;14.20;70.11
73297;BME280;61524;50.938;11.396;2023-01-01T12:09:53;99240.50;;;14.29;70.22
73297;BME280;61524;50.938;11.396;2023-01-01T12:12:28;99234.06;;;14.30;69.99
73297;BME280;61524;50.938;11.396;2023-01-01T12:15:04;99234.88;;;14.31;69.42
73297;BME280;61524;50.938;11.396;2023-01-01T12:22:47;99237.56;;;14.41;69.21
73297;BME280;61524;50.938;11.396;2023-01-01T12:25:16;99238.38;;;14.36;68.85
73297;BME280;61524;50.938;11.396;2023-01-01T12:46:47;99234.31;;;14.24;68.88
73297;BME280;61524;50.938;11.396;2023-01-01T12:58:03;99251.81;;;14.36;68.75
73297;BME280;61524;50.938;11.396;2023-01-01T13:00:31;99245.91;;;14.29;69.18
73297;BME280;61524;50.938;11.396;2023-01-01T13:03:01;99241.06;;;14.26;68.95
73297;BME280;61524;50.938;11.396;2023-01-01T13:05:37;99242.66;;;14.22;69.11
73297;BME280;61524;50.938;11.396;2023-01-01T13:08:05;99249.63;;;14.18;69.75
73297;BME280;61524;50.938;11.396;2023-01-01T13:10:39;99249.63;;;14.13;69.55
73297;BME280;61524;50.938;11.396;2023-01-01T13:13:07;99261.16;;;14.08;69.85
73297;BME280;61524;50.938;11.396;2023-01-01T13:18:04;99271.84;;;13.98;70.75
73297;BME280;61524;50.938;11.396;2023-01-01T13:20:31;99293.31;;;13.93;70.46
73297;BME280;61524;50.938;11.396;2023-01-01T13:22:58;99280.44;;;13.90;70.26
73297;BME280;61524;50.938;11.396;2023-01-01T13:25:23;99283.91;;;13.85;70.70
73297;BME280;61524;50.938;11.396;2023-01-01T13:33:14;99300.78;;;13.76;70.95
73297;BME280;61524;50.938;11.396;2023-01-01T13:35:40;99298.31;;;13.69;71.26
73297;BME280;61524;50.938;11.396;2023-01-01T13:39:07;99305.28;;;13.65;71.90
73297;BME280;61524;50.938;11.396;2023-01-01T13:52:25;99314.97;;;13.29;72.96
73297;BME280;61524;50.938;11.396;2023-01-01T13:57:58;99312.00;;;13.25;73.43
73297;BME280;61524;50.938;11.396;2023-01-01T14:03:12;99313.34;;;13.28;72.99
73297;BME280;61524;50.938;11.396;2023-01-01T14:05:45;99313.31;;;13.23;73.51
73297;BME280;61524;50.938;11.396;2023-01-01T14:08:33;99305.19;;;13.18;73.47
73297;BME280;61524;50.938;11.396;2023-01-01T14:11:00;99305.25;;;13.23;73.37
73297;BME280;61524;50.938;11.396;2023-01-01T14:13:30;99311.44;;;13.23;73.30
73297;BME280;61524;50.938;11.396;2023-01-01T14:16:05;99320.88;;;13.26;73.01
73297;BME280;61524;50.938;11.396;2023-01-01T14:18:34;99322.16;;;13.23;73.41
73297;BME280;61524;50.938;11.396;2023-01-01T14:21:00;99315.66;;;13.14;73.77
73297;BME280;61524;50.938;11.396;2023-01-01T14:25:55;99313.47;;;13.11;73.33
73297;BME280;61524;50.938;11.396;2023-01-01T14:28:29;99313.47;;;13.11;73.68
73297;BME280;61524;50.938;11.396;2023-01-01T14:30:56;99305.41;;;13.11;73.82
73297;BME280;61524;50.938;11.396;2023-01-01T14:33:25;99322.63;;;13.15;73.39
73297;BME280;61524;50.938;11.396;2023-01-01T14:35:53;99314.53;;;13.10;73.66
73297;BME280;61524;50.938;11.396;2023-01-01T14:38:26;99309.13;;;13.05;74.13
73297;BME280;61524;50.938;11.396;2023-01-01T14:43:56;99309.94;;;13.05;73.14
73297;BME280;61524;50.938;11.396;2023-01-01T14:46:24;99311.22;;;12.98;73.84
73297;BME280;61524;50.938;11.396;2023-01-01T14:48:56;99318.41;;;12.92;74.16
73297;BME280;61524;50.938;11.396;2023-01-01T14:51:25;99315.59;;;12.77;74.60
73297;BME280;61524;50.938;11.396;2023-01-01T14:53:56;99316.00;;;12.64;75.19
73297;BME280;61524;50.938;11.396;2023-01-01T14:56:25;99317.84;;;12.63;75.00
73297;BME280;61524;50.938;11.396;2023-01-01T14:58:52;99310.28;;;12.55;75.12
73297;BME280;61524;50.938;11.396;2023-01-01T15:01:23;99318.81;;;12.52;75.74
73297;BME280;61524;50.938;11.396;2023-01-01T15:04:04;99327.38;;;12.49;75.64
73297;BME280;61524;50.938;11.396;2023-01-01T15:06:40;99314.72;;;12.44;75.51
73297;BME280;61524;50.938;11.396;2023-01-01T15:09:06;99328.31;;;12.38;76.28